createdAt,value
2022-11-16T00:01:37.846Z,4.94
2022-11-16T00:04:05.735Z,4.60
2022-11-16T00:06:33.331Z,4.89
2022-11-16T00:09:21.625Z,4.95
2022-11-16T00:11:51.496Z,5.03
2022-11-16T00:14:20.490Z,5.08
2022-11-16T00:16:47.905Z,4.96
2022-11-16T00:19:15.465Z,5.00
2022-11-16T00:21:43.122Z,5.23
2022-11-16T00:24:13.724Z,4.99
2022-11-16T00:26:41.918Z,5.01
2022-11-16T00:29:22.117Z,5.34
2022-11-16T00:31:50.654Z,4.81
2022-11-16T00:34:18.683Z,4.54
2022-11-16T00:36:46.915Z,4.71
2022-11-16T00:39:16.394Z,4.79
2022-11-16T00:41:46.615Z,5.02
2022-11-16T00:44:14.535Z,4.82
2022-11-16T00:46:42.819Z,5.10
2022-11-16T00:49:10.156Z,4.85
2022-11-16T00:51:38.067Z,4.84
2022-11-16T00:54:07.442Z,5.02
2022-11-16T00:56:35.274Z,5.08
2022-11-16T00:59:02.674Z,4.48
2022-11-16T01:01:30.397Z,4.43
2022-11-16T01:03:57.736Z,4.36
2022-11-16T01:06:24.937Z,4.60
2022-11-16T01:08:53.312Z,4.68
2022-11-16T01:11:41.707Z,4.87
2022-11-16T01:14:10.223Z,4.92
2022-11-16T01:16:37.841Z,4.87
2022-11-16T01:19:05.735Z,4.93
2022-11-16T01:21:34.377Z,5.09
2022-11-16T01:24:01.731Z,5.18
2022-11-16T01:26:29.296Z,5.22
2022-11-16T01:28:58.835Z,4.47
2022-11-16T01:31:27.377Z,4.13
2022-11-16T01:33:55.165Z,4.21
2022-11-16T01:36:23.144Z,4.12
2022-11-16T01:38:50.887Z,4.31
2022-11-16T01:41:22.274Z,4.47
2022-11-16T01:44:06.304Z,4.51
2022-11-16T01:46:35.031Z,4.61
2022-11-16T01:49:12.531Z,4.15
2022-11-16T01:51:42.654Z,4.29
2022-11-16T01:54:12.802Z,4.36
2022-11-16T01:56:45.580Z,4.48
2022-11-16T01:59:14.701Z,4.67
2022-11-16T02:01:42.165Z,4.67
2022-11-16T02:04:14.365Z,4.82
2022-11-16T02:06:57.991Z,4.91
2022-11-16T02:09:57.340Z,4.91
2022-11-16T02:12:43.508Z,4.82
2022-11-16T02:15:19.629Z,4.89
2022-11-16T02:18:12.165Z,4.63
2022-11-16T02:21:13.237Z,4.86
2022-11-16T02:24:19.079Z,4.76
2022-11-16T02:27:20.767Z,4.93
2022-11-16T02:29:53.495Z,4.92
2022-11-16T02:32:27.124Z,5.02
2022-11-16T02:35:06.450Z,4.67
2022-11-16T02:37:39.208Z,4.65
2022-11-16T02:40:11.820Z,4.76
2022-11-16T02:42:45.537Z,4.87
2022-11-16T02:45:20.305Z,4.97
2022-11-16T02:47:50.136Z,5.07
2022-11-16T02:50:21.221Z,4.99
2022-11-16T02:52:48.561Z,5.00
2022-11-16T02:55:15.801Z,5.04
2022-11-16T02:58:07.613Z,5.10
2022-11-16T03:00:43.723Z,5.05
2022-11-16T03:03:14.518Z,5.05
2022-11-16T03:05:58.370Z,4.97
2022-11-16T03:08:32.635Z,4.62
2022-11-16T03:11:35.080Z,4.78
2022-11-16T03:14:21.317Z,4.80
2022-11-16T03:16:56.777Z,5.11
2022-11-16T03:19:33.816Z,5.04
2022-11-16T03:22:12.177Z,5.05
2022-11-16T03:24:41.818Z,4.84
2022-11-16T03:27:29.156Z,4.80
2022-11-16T03:30:24.917Z,4.88
2022-11-16T03:33:00.090Z,4.88
2022-11-16T03:35:35.669Z,5.11
2022-11-16T03:38:05.822Z,4.95
2022-11-16T03:40:35.957Z,4.93
2022-11-16T03:43:06.868Z,4.95
2022-11-16T03:45:35.938Z,5.06
2022-11-16T03:48:07.292Z,5.20
2022-11-16T03:50:35.512Z,5.26
2022-11-16T03:53:02.961Z,5.12
2022-11-16T03:55:30.337Z,4.92
2022-11-16T03:57:58.672Z,5.03
2022-11-16T04:00:25.989Z,5.04
2022-11-16T04:02:53.930Z,4.87
2022-11-16T04:05:39.925Z,5.03
2022-11-16T04:08:33.403Z,4.99
2022-11-16T04:11:19.924Z,4.91
2022-11-16T04:14:09.289Z,5.08
2022-11-16T04:16:57.441Z,5.16
2022-11-16T04:19:44.292Z,5.02
2022-11-16T04:22:37.801Z,4.96
2022-11-16T04:25:14.523Z,4.98
2022-11-16T04:28:01.759Z,4.80
2022-11-16T04:30:50.542Z,4.66
2022-11-16T04:33:53.748Z,5.00
2022-11-16T04:36:42.501Z,4.84
2022-11-16T04:39:13.810Z,4.81
2022-11-16T04:42:01.959Z,4.87
2022-11-16T04:44:50.049Z,4.92
2022-11-16T04:47:18.116Z,4.92
2022-11-16T04:49:46.876Z,5.06
2022-11-16T04:52:14.393Z,4.87
2022-11-16T04:54:42.962Z,5.09
2022-11-16T04:57:11.256Z,4.79
2022-11-16T04:59:38.867Z,4.79
2022-11-16T05:02:09.658Z,4.80
2022-11-16T05:04:43.669Z,4.82
2022-11-16T05:09:58.232Z,5.19
2022-11-16T05:12:28.516Z,5.19
2022-11-16T05:14:56.573Z,4.70
2022-11-16T05:17:25.628Z,4.61
2022-11-16T05:20:13.317Z,4.96
2022-11-16T05:22:41.842Z,4.84
2022-11-16T05:25:11.490Z,4.87
2022-11-16T05:27:39.145Z,4.90
2022-11-16T05:30:07.897Z,4.92
2022-11-16T05:32:36.557Z,4.78
2022-11-16T05:35:04.848Z,4.78
2022-11-16T05:37:32.997Z,4.79
2022-11-16T05:40:02.025Z,4.68
2022-11-16T05:42:31.011Z,4.83
2022-11-16T05:44:58.464Z,4.94
2022-11-16T05:47:26.035Z,4.99
2022-11-16T05:49:53.551Z,4.84
2022-11-16T05:52:21.615Z,4.56
2022-11-16T05:54:50.707Z,4.67
2022-11-16T05:57:18.295Z,4.52
2022-11-16T05:59:46.019Z,4.67
2022-11-16T06:02:14.712Z,4.73
2022-11-16T06:04:42.797Z,4.69
2022-11-16T06:21:52.546Z,4.83
2022-11-16T06:24:20.957Z,4.83
2022-11-16T06:26:48.406Z,4.39
2022-11-16T06:29:16.198Z,4.39
2022-11-16T06:31:43.912Z,4.55
2022-11-16T06:34:11.244Z,4.43
2022-11-16T06:36:38.782Z,4.20
2022-11-16T06:39:06.998Z,4.20
2022-11-16T06:41:40.178Z,4.17
2022-11-16T06:44:09.386Z,4.50
2022-11-16T06:46:37.647Z,4.61
2022-11-16T06:49:05.379Z,4.87
2022-11-16T06:51:34.094Z,4.97
2022-11-16T06:54:01.362Z,5.24
2022-11-16T06:56:29.866Z,5.20
2022-11-16T06:58:58.588Z,5.08
2022-11-16T07:01:27.677Z,5.26
2022-11-16T07:03:58.057Z,5.51
2022-11-16T07:26:17.926Z,5.24
2022-11-16T07:28:48.345Z,5.24
2022-11-16T07:31:16.857Z,4.82
2022-11-16T07:33:44.613Z,4.90
2022-11-16T07:36:16.786Z,5.15
2022-11-16T07:38:44.267Z,4.79
2022-11-16T07:41:14.666Z,5.14
2022-11-16T07:43:48.605Z,5.16
2022-11-16T07:49:16.094Z,5.56
2022-11-16T07:51:45.876Z,5.67
2022-11-16T07:54:17.030Z,5.81
2022-11-16T07:56:44.666Z,5.91
2022-11-16T07:59:12.010Z,6.06
2022-11-16T08:01:40.318Z,6.09
2022-11-16T08:04:08.473Z,6.39
2022-11-16T08:06:36.541Z,6.58
2022-11-16T08:09:04.167Z,6.80
2022-11-16T08:11:32.905Z,6.63
2022-11-16T08:14:00.333Z,6.59
2022-11-16T08:16:28.056Z,6.56
2022-11-16T08:19:00.927Z,6.88
2022-11-16T08:21:28.386Z,7.29
2022-11-16T08:23:58.673Z,6.98
2022-11-16T08:26:27.748Z,7.39
2022-11-16T08:28:57.394Z,7.14
2022-11-16T08:31:27.882Z,7.23
2022-11-16T08:34:00.345Z,7.52
2022-11-16T08:36:27.860Z,7.31
2022-11-16T08:38:55.380Z,7.68
2022-11-16T08:41:23.304Z,7.83
2022-11-16T08:43:50.916Z,8.05
2022-11-16T08:46:18.509Z,8.20
2022-11-16T08:48:48.997Z,8.38
2022-11-16T08:51:19.488Z,8.60
2022-11-16T08:53:49.602Z,8.65
2022-11-16T08:56:18.956Z,8.99
2022-11-16T08:58:47.946Z,9.02
2022-11-16T09:01:19.846Z,9.10
2022-11-16T09:03:47.532Z,9.63
2022-11-16T09:06:16.336Z,9.72
2022-11-16T09:08:44.631Z,9.74
2022-11-16T09:11:18.920Z,9.33
2022-11-16T09:13:48.172Z,9.44
2022-11-16T09:16:16.988Z,9.30
2022-11-16T09:18:46.811Z,9.52
2022-11-16T09:21:32.914Z,9.55
2022-11-16T09:24:00.354Z,9.17
2022-11-16T09:26:28.107Z,9.35
2022-11-16T09:29:00.566Z,8.98
2022-11-16T09:31:31.201Z,8.97
2022-11-16T09:33:59.058Z,9.02
2022-11-16T09:36:27.811Z,8.87
2022-11-16T09:42:06.707Z,8.94
2022-11-16T09:44:49.179Z,9.60
2022-11-16T09:47:22.617Z,10.36
2022-11-16T09:50:01.608Z,10.71
2022-11-16T09:55:24.823Z,11.37
2022-11-16T09:57:56.103Z,11.74
2022-11-16T10:00:24.837Z,12.15
2022-11-16T10:03:06.683Z,12.37
2022-11-16T10:05:38.839Z,12.67
2022-11-16T10:08:23.748Z,12.41
2022-11-16T10:11:14.369Z,12.62
2022-11-16T10:14:16.824Z,12.08
2022-11-16T10:17:05.037Z,12.52
2022-11-16T10:19:56.840Z,12.18
2022-11-16T10:22:51.669Z,12.50
2022-11-16T10:25:24.085Z,12.55
2022-11-16T10:28:25.673Z,12.29
2022-11-16T10:31:29.157Z,12.32
2022-11-16T10:33:59.230Z,12.52
2022-11-16T10:36:31.003Z,13.16
2022-11-16T10:39:00.695Z,13.28
2022-11-16T10:41:39.460Z,13.77
2022-11-16T10:44:17.621Z,13.94
2022-11-16T10:46:57.441Z,13.95
2022-11-16T10:49:40.620Z,13.38
2022-11-16T10:52:08.215Z,13.36
2022-11-16T10:54:37.826Z,13.48
2022-11-16T10:57:14.326Z,13.03
2022-11-16T10:59:55.725Z,13.02
2022-11-16T11:02:23.320Z,12.95
2022-11-16T11:05:04.203Z,12.59
2022-11-16T11:07:58.309Z,12.12
2022-11-16T11:10:40.348Z,12.21
2022-11-16T11:13:22.787Z,12.11
2022-11-16T11:15:51.457Z,11.69
2022-11-16T11:18:20.456Z,11.75
2022-11-16T11:20:51.984Z,11.73
2022-11-16T11:23:23.885Z,11.68
2022-11-16T11:25:51.171Z,11.34
2022-11-16T11:28:32.033Z,11.26
2022-11-16T11:31:17.221Z,11.24
2022-11-16T11:34:05.170Z,11.21
2022-11-16T11:36:40.640Z,11.19
2022-11-16T11:42:12.615Z,11.47
2022-11-16T11:44:52.117Z,11.50
2022-11-16T11:47:58.619Z,11.22
2022-11-16T11:50:58.213Z,11.26
2022-11-16T11:53:43.079Z,11.37
2022-11-16T11:56:12.576Z,11.25
2022-11-16T11:58:42.395Z,11.48
2022-11-16T12:01:25.278Z,11.42
2022-11-16T12:03:56.463Z,11.59
2022-11-16T12:06:52.547Z,11.68
2022-11-16T12:09:48.276Z,11.47
2022-11-16T12:12:37.952Z,11.59
2022-11-16T12:15:42.619Z,11.68
2022-11-16T12:18:22.275Z,11.73
2022-11-16T12:21:05.235Z,11.93
2022-11-16T12:24:08.228Z,11.68
2022-11-16T12:26:59.495Z,11.86
2022-11-16T12:29:44.903Z,12.00
2022-11-16T12:32:30.962Z,12.05
2022-11-16T12:35:21.748Z,12.02
2022-11-16T12:37:55.926Z,11.88
2022-11-16T12:40:45.123Z,11.96
2022-11-16T12:43:23.885Z,12.13
2022-11-16T12:46:07.147Z,12.02
2022-11-16T12:48:48.899Z,12.20
2022-11-16T12:51:48.704Z,12.27
2022-11-16T12:55:04.213Z,11.88
2022-11-16T12:57:35.821Z,12.03
2022-11-16T13:00:10.367Z,12.49
2022-11-16T13:02:43.715Z,12.48
2022-11-16T13:05:20.718Z,12.79
2022-11-16T13:07:52.845Z,12.55
2022-11-16T13:10:24.844Z,12.81
2022-11-16T13:13:15.373Z,12.97
2022-11-16T13:15:48.149Z,13.12
2022-11-16T13:18:19.842Z,13.00
2022-11-16T13:21:18.784Z,12.84
2022-11-16T13:24:07.546Z,13.07
2022-11-16T13:26:41.165Z,12.73
2022-11-16T13:29:37.463Z,12.45
2022-11-16T13:32:41.720Z,12.55
2022-11-16T13:35:15.249Z,12.30
2022-11-16T13:37:47.474Z,12.06
2022-11-16T13:40:24.612Z,12.44
2022-11-16T13:43:16.326Z,12.46
2022-11-16T13:45:49.922Z,12.57
2022-11-16T13:48:21.731Z,12.73
2022-11-16T13:50:55.484Z,12.88
2022-11-16T13:54:25.005Z,12.72
2022-11-16T13:56:20.901Z,12.87
2022-11-16T13:58:55.473Z,12.76
2022-11-16T14:01:24.062Z,12.69
2022-11-16T14:04:12.325Z,12.68
2022-11-16T14:09:49.501Z,12.62
2022-11-16T14:12:39.182Z,12.62
2022-11-16T14:15:17.372Z,12.23
2022-11-16T14:18:35.328Z,12.26
2022-11-16T14:21:17.831Z,12.20
2022-11-16T14:23:54.742Z,12.30
2022-11-16T14:26:40.325Z,12.40
2022-11-16T14:29:13.933Z,12.40
2022-11-16T14:31:50.580Z,12.40
2022-11-16T14:34:43.616Z,12.38
2022-11-16T14:37:24.622Z,12.35
2022-11-16T14:40:01.126Z,12.31
2022-11-16T14:42:42.987Z,12.18
2022-11-16T14:45:26.414Z,12.19
2022-11-16T14:48:00.123Z,12.29
2022-11-16T14:50:27.792Z,12.20
2022-11-16T14:53:00.521Z,12.16
2022-11-16T14:55:28.272Z,12.07
2022-11-16T14:58:21.525Z,12.10
2022-11-16T15:00:59.607Z,12.00
2022-11-16T15:03:30.967Z,12.01
2022-11-16T15:06:04.409Z,11.72
2022-11-16T15:08:54.609Z,11.65
2022-11-16T15:11:50.515Z,11.51
2022-11-16T15:14:24.889Z,11.45
2022-11-16T15:16:55.184Z,11.33
2022-11-16T15:19:23.858Z,11.33
2022-11-16T15:21:56.869Z,11.47
2022-11-16T15:24:31.063Z,11.45
2022-11-16T15:27:09.558Z,11.25
2022-11-16T15:29:37.828Z,11.18
2022-11-16T15:32:07.619Z,11.24
2022-11-16T15:34:37.920Z,11.40
2022-11-16T15:37:05.561Z,11.37
2022-11-16T15:39:36.295Z,11.41
2022-11-16T15:42:04.500Z,11.27
2022-11-16T15:44:33.737Z,11.25
2022-11-16T15:47:03.331Z,11.29
2022-11-16T15:49:34.575Z,11.19
2022-11-16T15:52:02.370Z,11.07
2022-11-16T15:54:54.843Z,11.04
2022-11-16T15:57:24.119Z,11.03
2022-11-16T15:59:57.231Z,10.83
2022-11-16T16:02:31.867Z,10.98
2022-11-16T16:04:59.524Z,11.03
2022-11-16T16:07:38.236Z,11.06
2022-11-16T16:10:32.009Z,11.17
2022-11-16T16:13:01.330Z,11.23
2022-11-16T16:15:34.197Z,11.10
2022-11-16T16:18:02.969Z,11.37
2022-11-16T16:20:32.296Z,11.08
2022-11-16T16:23:13.173Z,11.07
2022-11-16T16:25:44.722Z,11.06
2022-11-16T16:28:14.844Z,10.95
2022-11-16T16:30:43.286Z,11.00
2022-11-16T16:33:19.444Z,11.27
2022-11-16T16:35:49.945Z,10.90
2022-11-16T16:38:17.279Z,10.79
2022-11-16T16:40:44.662Z,10.92
2022-11-16T16:43:12.316Z,10.93
2022-11-16T16:45:43.566Z,10.85
2022-11-16T16:48:14.069Z,10.71
2022-11-16T16:50:41.691Z,10.77
2022-11-16T16:53:12.440Z,10.78
2022-11-16T16:55:40.141Z,10.51
2022-11-16T16:58:07.825Z,10.36
2022-11-16T17:00:35.465Z,10.41
2022-11-16T17:03:02.903Z,10.56
2022-11-16T17:05:32.974Z,10.46
2022-11-16T17:08:00.901Z,10.76
2022-11-16T17:10:28.242Z,10.80
2022-11-16T17:12:56.623Z,10.73
2022-11-16T17:15:24.804Z,10.53
2022-11-16T17:17:52.161Z,10.70
2022-11-16T17:20:19.836Z,10.70
2022-11-16T17:22:47.151Z,10.68
2022-11-16T17:25:15.077Z,10.64
2022-11-16T17:27:42.904Z,10.65
2022-11-16T17:30:10.791Z,10.67
2022-11-16T17:32:38.070Z,10.70
2022-11-16T17:35:05.778Z,10.88
2022-11-16T17:37:33.069Z,11.04
2022-11-16T17:40:00.469Z,10.78
2022-11-16T17:42:28.125Z,10.61
2022-11-16T17:44:55.621Z,10.72
2022-11-16T17:47:22.932Z,10.71
2022-11-16T17:49:50.569Z,10.74
2022-11-16T17:52:17.892Z,10.63
2022-11-16T17:54:45.152Z,10.62
2022-11-16T17:57:12.811Z,10.68
2022-11-16T17:59:40.325Z,10.78
2022-11-16T18:02:10.848Z,10.81
2022-11-16T18:04:38.609Z,10.61
2022-11-16T18:07:05.986Z,10.60
2022-11-16T18:09:33.351Z,10.48
2022-11-16T18:12:01.035Z,10.53
2022-11-16T18:14:28.303Z,10.39
2022-11-16T18:16:55.744Z,10.47
2022-11-16T18:19:23.363Z,10.33
2022-11-16T18:21:50.898Z,10.08
2022-11-16T18:24:18.233Z,10.11
2022-11-16T18:26:45.952Z,10.14
2022-11-16T18:29:16.174Z,10.05
2022-11-16T18:31:43.748Z,10.18
2022-11-16T18:34:15.521Z,10.09
2022-11-16T18:36:42.942Z,10.18
2022-11-16T18:39:10.667Z,10.16
2022-11-16T18:41:48.780Z,10.03
2022-11-16T18:44:21.038Z,9.91
2022-11-16T18:46:48.430Z,9.90
2022-11-16T18:49:16.113Z,9.93
2022-11-16T18:51:43.831Z,10.02
2022-11-16T18:54:11.136Z,10.13
2022-11-16T18:56:38.594Z,10.10
2022-11-16T18:59:06.188Z,10.14
2022-11-16T19:01:33.586Z,9.92
2022-11-16T19:04:00.958Z,10.11
2022-11-16T19:06:32.377Z,10.26
2022-11-16T19:09:00.170Z,10.29
2022-11-16T19:11:28.726Z,10.11
2022-11-16T19:14:01.131Z,10.21
2022-11-16T19:16:28.641Z,10.22
2022-11-16T19:18:57.438Z,10.17
2022-11-16T19:21:25.399Z,10.07
2022-11-16T19:23:54.314Z,10.19
2022-11-16T19:26:24.759Z,10.32
2022-11-16T19:28:53.399Z,10.31
2022-11-16T19:31:28.807Z,10.22
2022-11-16T19:33:59.190Z,10.20
2022-11-16T19:36:28.167Z,10.17
2022-11-16T19:38:56.434Z,10.11
2022-11-16T19:41:25.908Z,10.24
2022-11-16T19:43:57.432Z,10.09
2022-11-16T19:46:26.669Z,10.11
2022-11-16T19:48:55.505Z,10.23
2022-11-16T19:51:25.796Z,9.96
2022-11-16T19:53:53.678Z,9.99
2022-11-16T19:56:23.112Z,10.06
2022-11-16T19:58:51.238Z,9.89
2022-11-16T20:01:26.337Z,9.97
2022-11-16T20:03:56.172Z,9.87
2022-11-16T20:06:29.494Z,9.92
2022-11-16T20:09:08.524Z,10.02
2022-11-16T20:11:36.936Z,9.93
2022-11-16T20:14:07.086Z,9.77
2022-11-16T20:16:39.232Z,9.80
2022-11-16T20:19:09.472Z,9.74
2022-11-16T20:21:38.972Z,9.86
2022-11-16T20:24:11.674Z,9.93
2022-11-16T20:26:46.496Z,9.95
2022-11-16T20:29:15.721Z,10.02
2022-11-16T20:31:45.410Z,10.08
2022-11-16T20:34:15.277Z,10.10
2022-11-16T20:36:45.311Z,10.11
2022-11-16T20:39:14.614Z,9.96
2022-11-16T20:41:44.048Z,9.91
2022-11-16T20:44:16.540Z,9.77
2022-11-16T20:46:45.348Z,9.80
2022-11-16T20:49:13.344Z,9.83
2022-11-16T20:51:41.219Z,9.65
2022-11-16T20:54:08.729Z,9.75
2022-11-16T20:56:36.609Z,9.74
2022-11-16T20:59:03.950Z,9.77
2022-11-16T21:01:34.100Z,9.76
2022-11-16T21:04:04.462Z,9.71
2022-11-16T21:06:33.338Z,9.64
2022-11-16T21:09:01.279Z,9.62
2022-11-16T21:11:31.157Z,9.68
2022-11-16T21:14:16.667Z,9.61
2022-11-16T21:16:44.950Z,9.55
2022-11-16T21:19:12.879Z,9.61
2022-11-16T21:21:41.092Z,9.41
2022-11-16T21:24:10.404Z,9.39
2022-11-16T21:26:38.203Z,9.39
2022-11-16T21:29:05.926Z,9.72
2022-11-16T21:31:36.456Z,9.55
2022-11-16T21:34:04.852Z,9.34
2022-11-16T21:36:33.042Z,9.39
2022-11-16T21:39:00.921Z,9.32
2022-11-16T21:41:28.799Z,9.18
2022-11-16T21:43:56.617Z,9.18
2022-11-16T21:46:26.369Z,9.23
2022-11-16T21:48:55.565Z,9.21
2022-11-16T21:51:24.902Z,9.32
2022-11-16T21:53:52.855Z,9.31
2022-11-16T21:56:22.125Z,9.31
2022-11-16T21:58:50.626Z,9.39
2022-11-16T22:01:18.864Z,9.38
2022-11-16T22:03:46.700Z,9.48
2022-11-16T22:06:34.072Z,9.50
2022-11-16T22:09:01.968Z,9.56
2022-11-16T22:11:29.523Z,9.46
2022-11-16T22:13:56.924Z,9.60
2022-11-16T22:16:24.584Z,9.64
2022-11-16T22:18:51.979Z,9.85
2022-11-16T22:21:19.389Z,9.64
2022-11-16T22:23:46.935Z,9.86
2022-11-16T22:26:14.837Z,9.63
2022-11-16T22:28:42.342Z,9.51
2022-11-16T22:31:12.686Z,9.50
2022-11-16T22:33:40.635Z,9.58
2022-11-16T22:36:09.816Z,9.68
2022-11-16T22:38:38.015Z,9.67
2022-11-16T22:41:06.032Z,9.69
2022-11-16T22:43:33.795Z,9.62
2022-11-16T22:46:04.605Z,9.59
2022-11-16T22:48:37.430Z,9.73
2022-11-16T22:51:17.999Z,9.24
2022-11-16T22:53:45.794Z,9.24
2022-11-16T22:56:14.038Z,9.39
2022-11-16T22:58:41.397Z,9.37
2022-11-16T23:01:09.859Z,9.36
2022-11-16T23:03:37.771Z,9.39
2022-11-16T23:06:05.916Z,9.59
2022-11-16T23:08:33.995Z,9.54
2022-11-16T23:11:30.260Z,9.61
2022-11-16T23:14:16.582Z,9.61
2022-11-16T23:16:44.962Z,9.55
2022-11-16T23:19:33.239Z,9.34
2022-11-16T23:22:19.765Z,9.33
2022-11-16T23:25:06.032Z,9.18
2022-11-16T23:27:41.882Z,9.38
2022-11-16T23:30:12.839Z,9.45
2022-11-16T23:32:41.838Z,9.50
2022-11-16T23:35:10.462Z,9.69
2022-11-16T23:37:51.689Z,9.65
2022-11-16T23:40:20.071Z,9.56
2022-11-16T23:43:05.900Z,9.75
2022-11-16T23:45:33.930Z,9.78
2022-11-16T23:48:01.262Z,9.82
2022-11-16T23:50:28.615Z,9.80
2022-11-16T23:52:56.258Z,9.63
2022-11-16T23:55:23.501Z,9.74
2022-11-16T23:57:51.470Z,9.62
